sensor_id;sensor_type;location;lat;lon;timestamp;pressure;altitude;pressure_sealevel;temperature;humidity
77323;BME280;66384;51.052;9.850;2024-03-17T00:02:30;99347.75;;;7.03;67.49
77323;BME280;66384;51.052;9.850;2024-03-17T00:05:01;99347.14;;;7.05;67.55
77323;BME280;66384;51.052;9.850;2024-03-17T00:07:33;99346.52;;;7.06;67.54
77323;BME280;66384;51.052;9.850;2024-03-17T00:10:05;99349.98;;;7.07;67.56
77323;BME280;66384;51.052;9.850;2024-03-17T00:12:37;99346.20;;;7.07;67.61
77323;BME280;66384;51.052;9.850;2024-03-17T00:15:09;99345.66;;;7.03;67.74
77323;BME280;66384;51.052;9.850;2024-03-17T00:17:41;99343.96;;;7.00;67.85
77323;BME280;66384;51.052;9.850;2024-03-17T00:20:12;99346.48;;;6.96;67.96
77323;BME280;66384;51.052;9.850;2024-03-17T00:22:50;99346.46;;;6.92;67.96
77323;BME280;66384;51.052;9.850;2024-03-17T00:25:21;99352.43;;;6.88;68.02
77323;BME280;66384;51.052;9.850;2024-03-17T00:27:51;99353.11;;;6.88;67.95
77323;BME280;66384;51.052;9.850;2024-03-17T00:30:25;99353.62;;;6.88;68.23
77323;BME280;66384;51.052;9.850;2024-03-17T00:32:55;99355.02;;;6.88;68.33
77323;BME280;66384;51.052;9.850;2024-03-17T00:35:28;99354.02;;;6.89;68.44
77323;BME280;66384;51.052;9.850;2024-03-17T00:37:59;99355.46;;;6.91;68.53
77323;BME280;66384;51.052;9.850;2024-03-17T00:40:33;99355.95;;;6.90;68.52
77323;BME280;66384;51.052;9.850;2024-03-17T00:43:04;99355.92;;;6.89;68.67
77323;BME280;66384;51.052;9.850;2024-03-17T00:45:35;99356.04;;;6.88;68.65
77323;BME280;66384;51.052;9.850;2024-03-17T00:48:07;99353.37;;;6.90;68.62
77323;BME280;66384;51.052;9.850;2024-03-17T00:50:39;99347.60;;;6.91;68.70
77323;BME280;66384;51.052;9.850;2024-03-17T00:53:10;99346.50;;;6.92;68.78
77323;BME280;66384;51.052;9.850;2024-03-17T00:55:40;99345.55;;;6.94;68.65
77323;BME280;66384;51.052;9.850;2024-03-17T00:58:10;99346.67;;;6.96;68.71
77323;BME280;66384;51.052;9.850;2024-03-17T01:00:41;99344.36;;;6.98;68.76
77323;BME280;66384;51.052;9.850;2024-03-17T01:03:12;99349.20;;;6.98;68.79
77323;BME280;66384;51.052;9.850;2024-03-17T01:05:43;99344.04;;;6.98;68.61
77323;BME280;66384;51.052;9.850;2024-03-17T01:08:15;99343.41;;;6.96;68.64
77323;BME280;66384;51.052;9.850;2024-03-17T01:10:47;99344.06;;;6.95;68.69
77323;BME280;66384;51.052;9.850;2024-03-17T01:13:19;99341.64;;;6.95;68.83
77323;BME280;66384;51.052;9.850;2024-03-17T01:15:53;99341.52;;;6.96;68.95
77323;BME280;66384;51.052;9.850;2024-03-17T01:18:24;99337.21;;;6.95;68.76
77323;BME280;66384;51.052;9.850;2024-03-17T01:20:55;99334.61;;;6.94;68.57
77323;BME280;66384;51.052;9.850;2024-03-17T01:23:26;99331.73;;;6.95;68.69
77323;BME280;66384;51.052;9.850;2024-03-17T01:25:57;99329.88;;;6.95;68.68
77323;BME280;66384;51.052;9.850;2024-03-17T01:28:29;99332.27;;;6.95;68.78
77323;BME280;66384;51.052;9.850;2024-03-17T01:30:59;99329.20;;;6.95;68.79
77323;BME280;66384;51.052;9.850;2024-03-17T01:33:30;99325.60;;;6.95;68.77
77323;BME280;66384;51.052;9.850;2024-03-17T01:36:01;99324.27;;;6.96;68.77
77323;BME280;66384;51.052;9.850;2024-03-17T01:38:32;99325.26;;;6.95;68.67
77323;BME280;66384;51.052;9.850;2024-03-17T01:41:03;99324.74;;;6.92;68.59
77323;BME280;66384;51.052;9.850;2024-03-17T01:43:34;99325.27;;;6.92;68.73
77323;BME280;66384;51.052;9.850;2024-03-17T01:46:06;99322.42;;;6.93;68.81
77323;BME280;66384;51.052;9.850;2024-03-17T01:48:42;99319.77;;;6.95;68.70
77323;BME280;66384;51.052;9.850;2024-03-17T01:51:16;99317.16;;;6.94;68.53
77323;BME280;66384;51.052;9.850;2024-03-17T01:53:48;99313.05;;;6.90;68.67
77323;BME280;66384;51.052;9.850;2024-03-17T01:56:20;99315.15;;;6.88;68.85
77323;BME280;66384;51.052;9.850;2024-03-17T01:58:51;99318.00;;;6.87;68.88
77323;BME280;66384;51.052;9.850;2024-03-17T02:01:22;99310.05;;;6.85;69.03
77323;BME280;66384;51.052;9.850;2024-03-17T02:03:52;99306.41;;;6.84;69.13
77323;BME280;66384;51.052;9.850;2024-03-17T02:06:23;99302.23;;;6.83;69.16
77323;BME280;66384;51.052;9.850;2024-03-17T02:08:53;99297.14;;;6.80;69.27
77323;BME280;66384;51.052;9.850;2024-03-17T02:11:29;99296.16;;;6.77;69.36
77323;BME280;66384;51.052;9.850;2024-03-17T02:14:01;99291.95;;;6.75;69.42
77323;BME280;66384;51.052;9.850;2024-03-17T02:16:31;99289.13;;;6.74;69.36
77323;BME280;66384;51.052;9.850;2024-03-17T02:19:01;99286.83;;;6.72;69.35
77323;BME280;66384;51.052;9.850;2024-03-17T02:21:32;99285.67;;;6.69;69.53
77323;BME280;66384;51.052;9.850;2024-03-17T02:24:02;99283.61;;;6.66;69.48
77323;BME280;66384;51.052;9.850;2024-03-17T02:26:33;99279.95;;;6.64;69.58
77323;BME280;66384;51.052;9.850;2024-03-17T02:29:05;99281.70;;;6.62;69.69
77323;BME280;66384;51.052;9.850;2024-03-17T02:31:36;99279.59;;;6.61;69.49
77323;BME280;66384;51.052;9.850;2024-03-17T02:34:06;99277.52;;;6.57;69.35
77323;BME280;66384;51.052;9.850;2024-03-17T02:36:37;99274.38;;;6.52;69.32
77323;BME280;66384;51.052;9.850;2024-03-17T02:39:08;99272.96;;;6.45;69.22
77323;BME280;66384;51.052;9.850;2024-03-17T02:41:53;99275.58;;;6.36;69.36
77323;BME280;66384;51.052;9.850;2024-03-17T02:44:25;99275.19;;;6.32;69.49
77323;BME280;66384;51.052;9.850;2024-03-17T02:46:56;99275.17;;;6.28;69.50
77323;BME280;66384;51.052;9.850;2024-03-17T02:49:27;99277.23;;;6.25;69.43
77323;BME280;66384;51.052;9.850;2024-03-17T02:52:07;99278.38;;;6.21;68.77
77323;BME280;66384;51.052;9.850;2024-03-17T02:54:39;99282.27;;;6.17;68.47
77323;BME280;66384;51.052;9.850;2024-03-17T02:57:12;99283.65;;;6.14;68.51
77323;BME280;66384;51.052;9.850;2024-03-17T02:59:43;99282.79;;;6.11;68.61
77323;BME280;66384;51.052;9.850;2024-03-17T03:02:14;99283.75;;;6.07;68.69
77323;BME280;66384;51.052;9.850;2024-03-17T03:04:44;99288.64;;;6.02;68.82
77323;BME280;66384;51.052;9.850;2024-03-17T03:07:15;99288.88;;;5.97;68.97
77323;BME280;66384;51.052;9.850;2024-03-17T03:09:46;99290.17;;;5.92;69.14
77323;BME280;66384;51.052;9.850;2024-03-17T03:12:17;99292.71;;;5.89;69.05
77323;BME280;66384;51.052;9.850;2024-03-17T03:14:48;99287.20;;;5.85;69.11
77323;BME280;66384;51.052;9.850;2024-03-17T03:17:19;99291.55;;;5.84;69.20
77323;BME280;66384;51.052;9.850;2024-03-17T03:19:48;99289.13;;;5.80;69.31
77323;BME280;66384;51.052;9.850;2024-03-17T03:22:19;99288.92;;;5.76;69.50
77323;BME280;66384;51.052;9.850;2024-03-17T03:24:54;99293.80;;;5.72;69.31
77323;BME280;66384;51.052;9.850;2024-03-17T03:27:24;99293.03;;;5.67;69.16
77323;BME280;66384;51.052;9.850;2024-03-17T03:29:55;99288.79;;;5.61;68.96
77323;BME280;66384;51.052;9.850;2024-03-17T03:32:26;99285.42;;;5.53;68.91
77323;BME280;66384;51.052;9.850;2024-03-17T03:34:57;99290.20;;;5.46;69.17
77323;BME280;66384;51.052;9.850;2024-03-17T03:37:28;99289.48;;;5.40;69.25
77323;BME280;66384;51.052;9.850;2024-03-17T03:39:59;99286.85;;;5.36;69.31
77323;BME280;66384;51.052;9.850;2024-03-17T03:42:30;99288.26;;;5.30;69.21
77323;BME280;66384;51.052;9.850;2024-03-17T03:45:02;99288.89;;;5.27;69.17
77323;BME280;66384;51.052;9.850;2024-03-17T03:47:33;99286.77;;;5.22;69.12
77323;BME280;66384;51.052;9.850;2024-03-17T03:50:04;99289.36;;;5.20;69.18
77323;BME280;66384;51.052;9.850;2024-03-17T03:52:35;99292.88;;;5.16;69.03
77323;BME280;66384;51.052;9.850;2024-03-17T03:55:06;99290.48;;;5.10;68.95
77323;BME280;66384;51.052;9.850;2024-03-17T03:57:40;99289.52;;;5.05;69.11
77323;BME280;66384;51.052;9.850;2024-03-17T04:00:13;99291.34;;;5.00;69.21
77323;BME280;66384;51.052;9.850;2024-03-17T04:02:44;99294.83;;;4.99;69.27
77323;BME280;66384;51.052;9.850;2024-03-17T04:05:16;99293.58;;;4.95;68.95
77323;BME280;66384;51.052;9.850;2024-03-17T04:07:45;99293.73;;;4.92;68.85
77323;BME280;66384;51.052;9.850;2024-03-17T04:10:17;99293.02;;;4.88;68.95
77323;BME280;66384;51.052;9.850;2024-03-17T04:12:48;99291.17;;;4.86;69.05
77323;BME280;66384;51.052;9.850;2024-03-17T04:15:19;99297.11;;;4.86;69.17
77323;BME280;66384;51.052;9.850;2024-03-17T04:17:50;99297.98;;;4.80;68.85
77323;BME280;66384;51.052;9.850;2024-03-17T04:20:22;99299.84;;;4.74;68.95
77323;BME280;66384;51.052;9.850;2024-03-17T04:22:53;99295.80;;;4.72;68.86
77323;BME280;66384;51.052;9.850;2024-03-17T04:25:24;99292.77;;;4.70;68.92
77323;BME280;66384;51.052;9.850;2024-03-17T04:27:53;99297.45;;;4.59;68.77
77323;BME280;66384;51.052;9.850;2024-03-17T04:30:24;99302.84;;;4.49;68.81
77323;BME280;66384;51.052;9.850;2024-03-17T04:32:55;99302.06;;;4.42;69.07
77323;BME280;66384;51.052;9.850;2024-03-17T04:35:26;99297.84;;;4.40;69.16
77323;BME280;66384;51.052;9.850;2024-03-17T04:37:57;99297.79;;;4.40;69.07
77323;BME280;66384;51.052;9.850;2024-03-17T04:40:27;99299.23;;;4.38;68.94
77323;BME280;66384;51.052;9.850;2024-03-17T04:42:58;99306.96;;;4.36;68.90
77323;BME280;66384;51.052;9.850;2024-03-17T04:45:29;99311.42;;;4.34;68.85
77323;BME280;66384;51.052;9.850;2024-03-17T04:48:00;99317.34;;;4.33;68.92
77323;BME280;66384;51.052;9.850;2024-03-17T04:50:29;99316.05;;;4.31;68.83
77323;BME280;66384;51.052;9.850;2024-03-17T04:53:01;99322.15;;;4.31;68.75
77323;BME280;66384;51.052;9.850;2024-03-17T04:55:33;99323.34;;;4.28;68.66
77323;BME280;66384;51.052;9.850;2024-03-17T04:58:05;99329.00;;;4.26;68.65
77323;BME280;66384;51.052;9.850;2024-03-17T05:00:35;99329.00;;;4.23;68.64
77323;BME280;66384;51.052;9.850;2024-03-17T05:03:07;99328.92;;;4.19;68.74
77323;BME280;66384;51.052;9.850;2024-03-17T05:05:38;99333.19;;;4.17;68.81
77323;BME280;66384;51.052;9.850;2024-03-17T05:08:09;99333.26;;;4.15;68.85
77323;BME280;66384;51.052;9.850;2024-03-17T05:10:40;99334.06;;;4.11;68.85
77323;BME280;66384;51.052;9.850;2024-03-17T05:13:10;99338.58;;;4.07;68.68
77323;BME280;66384;51.052;9.850;2024-03-17T05:15:40;99342.54;;;4.02;68.70
77323;BME280;66384;51.052;9.850;2024-03-17T05:18:10;99345.26;;;3.97;68.67
77323;BME280;66384;51.052;9.850;2024-03-17T05:20:41;99348.38;;;3.93;68.86
77323;BME280;66384;51.052;9.850;2024-03-17T05:23:12;99347.64;;;3.89;68.89
77323;BME280;66384;51.052;9.850;2024-03-17T05:25:43;99353.00;;;3.87;69.01
77323;BME280;66384;51.052;9.850;2024-03-17T05:28:21;99352.19;;;3.85;68.96
77323;BME280;66384;51.052;9.850;2024-03-17T05:30:52;99356.45;;;3.83;68.98
77323;BME280;66384;51.052;9.850;2024-03-17T05:33:24;99357.20;;;3.81;69.20
77323;BME280;66384;51.052;9.850;2024-03-17T05:35:56;99358.33;;;3.80;69.12
77323;BME280;66384;51.052;9.850;2024-03-17T05:38:28;99361.53;;;3.80;69.11
77323;BME280;66384;51.052;9.850;2024-03-17T05:41:01;99362.34;;;3.79;69.25
77323;BME280;66384;51.052;9.850;2024-03-17T05:43:33;99367.77;;;3.79;69.25
77323;BME280;66384;51.052;9.850;2024-03-17T05:46:07;99365.61;;;3.80;69.32
77323;BME280;66384;51.052;9.850;2024-03-17T05:48:39;99371.41;;;3.80;69.25
77323;BME280;66384;51.052;9.850;2024-03-17T05:51:12;99362.90;;;3.80;69.35
77323;BME280;66384;51.052;9.850;2024-03-17T05:53:42;99364.70;;;3.82;69.53
77323;BME280;66384;51.052;9.850;2024-03-17T05:56:14;99369.92;;;3.83;69.56
77323;BME280;66384;51.052;9.850;2024-03-17T05:58:46;99371.45;;;3.86;69.47
77323;BME280;66384;51.052;9.850;2024-03-17T06:01:18;99366.05;;;3.84;69.46
77323;BME280;66384;51.052;9.850;2024-03-17T06:03:50;99365.65;;;3.83;69.50
77323;BME280;66384;51.052;9.850;2024-03-17T06:06:21;99370.37;;;3.82;69.58
77323;BME280;66384;51.052;9.850;2024-03-17T06:08:52;99366.95;;;3.82;69.75
77323;BME280;66384;51.052;9.850;2024-03-17T06:11:21;99365.87;;;3.84;69.84
77323;BME280;66384;51.052;9.850;2024-03-17T06:13:52;99359.55;;;3.84;69.78
77323;BME280;66384;51.052;9.850;2024-03-17T06:16:23;99358.34;;;3.83;69.96
77323;BME280;66384;51.052;9.850;2024-03-17T06:18:54;99353.85;;;3.85;70.10
77323;BME280;66384;51.052;9.850;2024-03-17T06:21:25;99349.78;;;3.85;70.23
77323;BME280;66384;51.052;9.850;2024-03-17T06:23:56;99349.39;;;3.87;70.55
77323;BME280;66384;51.052;9.850;2024-03-17T06:26:26;99348.11;;;3.91;70.64
77323;BME280;66384;51.052;9.850;2024-03-17T06:28:57;99348.31;;;3.94;70.53
77323;BME280;66384;51.052;9.850;2024-03-17T06:31:28;99345.21;;;3.96;70.61
77323;BME280;66384;51.052;9.850;2024-03-17T06:33:59;99349.63;;;3.99;70.56
77323;BME280;66384;51.052;9.850;2024-03-17T06:36:30;99344.00;;;4.01;70.68
77323;BME280;66384;51.052;9.850;2024-03-17T06:39:01;99338.56;;;4.04;70.65
77323;BME280;66384;51.052;9.850;2024-03-17T06:41:31;99336.81;;;4.06;70.73
77323;BME280;66384;51.052;9.850;2024-03-17T06:44:02;99337.82;;;4.08;70.72
77323;BME280;66384;51.052;9.850;2024-03-17T06:46:33;99339.20;;;4.09;70.76
77323;BME280;66384;51.052;9.850;2024-03-17T06:49:03;99336.89;;;4.10;70.88
77323;BME280;66384;51.052;9.850;2024-03-17T06:51:35;99341.83;;;4.13;70.95
77323;BME280;66384;51.052;9.850;2024-03-17T06:54:06;99336.73;;;4.16;71.03
77323;BME280;66384;51.052;9.850;2024-03-17T06:56:38;99335.25;;;4.20;71.10
77323;BME280;66384;51.052;9.850;2024-03-17T06:59:09;99334.52;;;4.22;71.21
77323;BME280;66384;51.052;9.850;2024-03-17T07:01:40;99333.39;;;4.25;71.25
77323;BME280;66384;51.052;9.850;2024-03-17T07:04:11;99328.05;;;4.30;71.30
77323;BME280;66384;51.052;9.850;2024-03-17T07:06:44;99331.23;;;4.35;71.46
77323;BME280;66384;51.052;9.850;2024-03-17T07:09:15;99329.34;;;4.40;71.46
77323;BME280;66384;51.052;9.850;2024-03-17T07:11:47;99331.00;;;4.45;71.58
77323;BME280;66384;51.052;9.850;2024-03-17T07:14:19;99334.54;;;4.50;71.64
77323;BME280;66384;51.052;9.850;2024-03-17T07:16:50;99335.27;;;4.54;71.69
77323;BME280;66384;51.052;9.850;2024-03-17T07:19:21;99331.13;;;4.59;71.75
77323;BME280;66384;51.052;9.850;2024-03-17T07:21:51;99329.56;;;4.64;71.86
77323;BME280;66384;51.052;9.850;2024-03-17T07:24:22;99331.20;;;4.68;71.86
77323;BME280;66384;51.052;9.850;2024-03-17T07:26:53;99328.94;;;4.73;71.82
77323;BME280;66384;51.052;9.850;2024-03-17T07:29:24;99332.86;;;4.79;71.86
77323;BME280;66384;51.052;9.850;2024-03-17T07:31:55;99331.34;;;4.85;71.80
77323;BME280;66384;51.052;9.850;2024-03-17T07:34:26;99326.55;;;4.91;71.95
77323;BME280;66384;51.052;9.850;2024-03-17T07:36:57;99326.94;;;4.97;72.01
77323;BME280;66384;51.052;9.850;2024-03-17T07:39:30;99329.73;;;5.01;71.93
77323;BME280;66384;51.052;9.850;2024-03-17T07:42:03;99326.80;;;5.07;72.12
77323;BME280;66384;51.052;9.850;2024-03-17T07:44:34;99326.47;;;5.13;72.17
77323;BME280;66384;51.052;9.850;2024-03-17T07:47:06;99325.61;;;5.19;72.12
77323;BME280;66384;51.052;9.850;2024-03-17T07:49:40;99328.02;;;5.24;72.18
77323;BME280;66384;51.052;9.850;2024-03-17T07:52:10;99330.91;;;5.31;72.36
77323;BME280;66384;51.052;9.850;2024-03-17T07:54:40;99333.93;;;5.39;72.18
77323;BME280;66384;51.052;9.850;2024-03-17T07:57:12;99333.84;;;5.46;72.23
77323;BME280;66384;51.052;9.850;2024-03-17T07:59:44;99336.54;;;5.55;72.17
77323;BME280;66384;51.052;9.850;2024-03-17T08:02:16;99332.75;;;5.61;71.85
77323;BME280;66384;51.052;9.850;2024-03-17T08:04:46;99332.99;;;5.68;71.80
77323;BME280;66384;51.052;9.850;2024-03-17T08:07:17;99332.30;;;5.77;71.82
77323;BME280;66384;51.052;9.850;2024-03-17T08:09:48;99327.06;;;5.84;71.25
77323;BME280;66384;51.052;9.850;2024-03-17T08:12:18;99333.29;;;5.91;70.83
77323;BME280;66384;51.052;9.850;2024-03-17T08:14:49;99330.64;;;5.99;70.64
77323;BME280;66384;51.052;9.850;2024-03-17T08:17:20;99329.38;;;6.07;70.62
77323;BME280;66384;51.052;9.850;2024-03-17T08:19:51;99326.33;;;6.14;70.62
77323;BME280;66384;51.052;9.850;2024-03-17T08:22:23;99318.88;;;6.22;70.63
77323;BME280;66384;51.052;9.850;2024-03-17T08:24:54;99310.46;;;6.30;70.52
77323;BME280;66384;51.052;9.850;2024-03-17T08:27:25;99305.77;;;6.38;70.36
77323;BME280;66384;51.052;9.850;2024-03-17T08:29:54;99303.88;;;6.48;70.08
77323;BME280;66384;51.052;9.850;2024-03-17T08:32:25;99303.09;;;6.59;69.92
77323;BME280;66384;51.052;9.850;2024-03-17T08:34:56;99304.55;;;6.71;69.84
77323;BME280;66384;51.052;9.850;2024-03-17T08:37:26;99303.61;;;6.83;69.57
77323;BME280;66384;51.052;9.850;2024-03-17T08:39:57;99300.17;;;6.96;69.39
77323;BME280;66384;51.052;9.850;2024-03-17T08:42:28;99298.88;;;7.08;68.79
77323;BME280;66384;51.052;9.850;2024-03-17T08:44:59;99296.37;;;7.19;68.26
77323;BME280;66384;51.052;9.850;2024-03-17T08:47:32;99297.77;;;7.31;68.07
77323;BME280;66384;51.052;9.850;2024-03-17T08:50:02;99299.61;;;7.40;67.95
77323;BME280;66384;51.052;9.850;2024-03-17T08:52:33;99297.70;;;7.50;67.51
77323;BME280;66384;51.052;9.850;2024-03-17T08:55:05;99296.40;;;7.59;67.32
77323;BME280;66384;51.052;9.850;2024-03-17T08:57:39;99290.69;;;7.68;67.01
77323;BME280;66384;51.052;9.850;2024-03-17T09:00:16;99286.33;;;7.78;66.18
77323;BME280;66384;51.052;9.850;2024-03-17T09:02:48;99286.20;;;7.86;65.23
77323;BME280;66384;51.052;9.850;2024-03-17T09:05:19;99286.73;;;7.94;65.10
77323;BME280;66384;51.052;9.850;2024-03-17T09:07:49;99289.33;;;8.02;64.31
77323;BME280;66384;51.052;9.850;2024-03-17T09:10:20;99286.08;;;8.10;63.39
77323;BME280;66384;51.052;9.850;2024-03-17T09:12:52;99284.35;;;8.17;62.81
77323;BME280;66384;51.052;9.850;2024-03-17T09:15:22;99288.15;;;8.25;62.57
77323;BME280;66384;51.052;9.850;2024-03-17T09:17:53;99290.49;;;8.32;61.91
77323;BME280;66384;51.052;9.850;2024-03-17T09:20:24;99289.81;;;8.39;61.53
77323;BME280;66384;51.052;9.850;2024-03-17T09:22:55;99289.16;;;8.44;61.44
77323;BME280;66384;51.052;9.850;2024-03-17T09:25:26;99291.20;;;8.51;61.12
77323;BME280;66384;51.052;9.850;2024-03-17T09:27:57;99289.81;;;8.58;60.82
77323;BME280;66384;51.052;9.850;2024-03-17T09:30:28;99289.50;;;8.67;60.29
77323;BME280;66384;51.052;9.850;2024-03-17T09:33:00;99285.95;;;8.72;58.38
77323;BME280;66384;51.052;9.850;2024-03-17T09:35:31;99282.87;;;8.77;57.61
77323;BME280;66384;51.052;9.850;2024-03-17T09:38:02;99282.08;;;8.78;56.98
77323;BME280;66384;51.052;9.850;2024-03-17T09:40:35;99278.96;;;8.81;57.32
77323;BME280;66384;51.052;9.850;2024-03-17T09:43:09;99278.76;;;8.84;57.60
77323;BME280;66384;51.052;9.850;2024-03-17T09:45:42;99281.51;;;8.88;57.44
77323;BME280;66384;51.052;9.850;2024-03-17T09:48:15;99277.63;;;8.94;57.06
77323;BME280;66384;51.052;9.850;2024-03-17T09:50:51;99277.35;;;9.00;56.74
77323;BME280;66384;51.052;9.850;2024-03-17T09:53:25;99276.14;;;9.03;55.94
77323;BME280;66384;51.052;9.850;2024-03-17T09:55:59;99270.13;;;9.08;56.62
77323;BME280;66384;51.052;9.850;2024-03-17T09:58:31;99274.48;;;9.18;56.98
77323;BME280;66384;51.052;9.850;2024-03-17T10:01:02;99273.47;;;9.26;56.89
77323;BME280;66384;51.052;9.850;2024-03-17T10:03:44;99273.56;;;9.37;56.78
77323;BME280;66384;51.052;9.850;2024-03-17T10:06:17;99267.64;;;9.48;56.37
77323;BME280;66384;51.052;9.850;2024-03-17T10:08:49;99264.98;;;9.59;56.42
77323;BME280;66384;51.052;9.850;2024-03-17T10:11:22;99261.50;;;9.72;56.43
77323;BME280;66384;51.052;9.850;2024-03-17T10:14:01;99259.30;;;9.81;56.11
77323;BME280;66384;51.052;9.850;2024-03-17T10:16:34;99261.02;;;9.94;55.71
77323;BME280;66384;51.052;9.850;2024-03-17T10:19:11;99264.58;;;10.07;55.55
77323;BME280;66384;51.052;9.850;2024-03-17T10:21:44;99261.46;;;10.16;53.44
77323;BME280;66384;51.052;9.850;2024-03-17T10:24:20;99260.04;;;10.19;53.33
77323;BME280;66384;51.052;9.850;2024-03-17T10:26:53;99257.77;;;10.23;53.36
77323;BME280;66384;51.052;9.850;2024-03-17T10:29:26;99254.98;;;10.26;52.99
77323;BME280;66384;51.052;9.850;2024-03-17T10:32:01;99254.45;;;10.31;53.28
77323;BME280;66384;51.052;9.850;2024-03-17T10:34:33;99256.16;;;10.35;52.13
77323;BME280;66384;51.052;9.850;2024-03-17T10:37:10;99254.05;;;10.34;52.30
77323;BME280;66384;51.052;9.850;2024-03-17T10:39:44;99252.37;;;10.35;52.58
77323;BME280;66384;51.052;9.850;2024-03-17T10:42:22;99253.45;;;10.40;52.65
77323;BME280;66384;51.052;9.850;2024-03-17T10:44:55;99258.43;;;10.45;52.24
77323;BME280;66384;51.052;9.850;2024-03-17T10:47:27;99257.05;;;10.50;52.03
77323;BME280;66384;51.052;9.850;2024-03-17T10:49:59;99259.13;;;10.55;52.38
77323;BME280;66384;51.052;9.850;2024-03-17T10:52:35;99260.52;;;10.65;52.71
77323;BME280;66384;51.052;9.850;2024-03-17T10:55:24;99261.73;;;10.76;52.03
77323;BME280;66384;51.052;9.850;2024-03-17T10:57:56;99260.96;;;10.83;52.20
77323;BME280;66384;51.052;9.850;2024-03-17T11:00:30;99258.66;;;10.91;52.17
77323;BME280;66384;51.052;9.850;2024-03-17T11:03:01;99261.67;;;10.99;51.53
77323;BME280;66384;51.052;9.850;2024-03-17T11:05:31;99261.34;;;11.05;51.16
77323;BME280;66384;51.052;9.850;2024-03-17T11:08:05;99260.52;;;11.11;50.83
77323;BME280;66384;51.052;9.850;2024-03-17T11:10:50;99257.83;;;11.18;50.50
77323;BME280;66384;51.052;9.850;2024-03-17T11:13:25;99252.23;;;11.26;50.21
77323;BME280;66384;51.052;9.850;2024-03-17T11:15:57;99256.97;;;11.34;50.56
77323;BME280;66384;51.052;9.850;2024-03-17T11:18:38;99253.75;;;11.42;50.44
77323;BME280;66384;51.052;9.850;2024-03-17T11:21:20;99248.36;;;11.51;50.32
77323;BME280;66384;51.052;9.850;2024-03-17T11:23:58;99242.40;;;11.58;50.22
77323;BME280;66384;51.052;9.850;2024-03-17T11:26:33;99239.02;;;11.66;49.36
77323;BME280;66384;51.052;9.850;2024-03-17T11:29:05;99233.86;;;11.72;49.30
77323;BME280;66384;51.052;9.850;2024-03-17T11:31:42;99239.15;;;11.76;47.91
77323;BME280;66384;51.052;9.850;2024-03-17T11:34:33;99238.98;;;11.76;47.73
77323;BME280;66384;51.052;9.850;2024-03-17T11:37:05;99239.55;;;11.78;47.46
77323;BME280;66384;51.052;9.850;2024-03-17T11:39:52;99231.21;;;11.76;47.24
77323;BME280;66384;51.052;9.850;2024-03-17T11:42:27;99222.34;;;11.79;47.43
77323;BME280;66384;51.052;9.850;2024-03-17T11:45:00;99221.92;;;11.88;47.86
77323;BME280;66384;51.052;9.850;2024-03-17T11:47:40;99218.02;;;11.95;47.79
77323;BME280;66384;51.052;9.850;2024-03-17T11:50:13;99221.85;;;12.02;47.60
77323;BME280;66384;51.052;9.850;2024-03-17T11:52:46;99220.96;;;12.08;47.12
77323;BME280;66384;51.052;9.850;2024-03-17T11:55:20;99216.79;;;12.12;47.23
77323;BME280;66384;51.052;9.850;2024-03-17T11:57:57;99211.48;;;12.14;46.88
77323;BME280;66384;51.052;9.850;2024-03-17T12:00:28;99211.34;;;12.15;46.94
77323;BME280;66384;51.052;9.850;2024-03-17T12:02:59;99206.59;;;12.18;47.01
77323;BME280;66384;51.052;9.850;2024-03-17T12:05:34;99199.96;;;12.21;47.16
77323;BME280;66384;51.052;9.850;2024-03-17T12:08:04;99202.66;;;12.25;47.24
77323;BME280;66384;51.052;9.850;2024-03-17T12:10:35;99200.05;;;12.31;47.42
77323;BME280;66384;51.052;9.850;2024-03-17T12:13:17;99194.84;;;12.36;46.79
77323;BME280;66384;51.052;9.850;2024-03-17T12:15:48;99194.16;;;12.43;47.14
77323;BME280;66384;51.052;9.850;2024-03-17T12:18:22;99195.80;;;12.52;46.88
77323;BME280;66384;51.052;9.850;2024-03-17T12:20:53;99197.30;;;12.64;46.14
77323;BME280;66384;51.052;9.850;2024-03-17T12:23:25;99191.34;;;12.66;45.79
77323;BME280;66384;51.052;9.850;2024-03-17T12:25:58;99186.10;;;12.70;45.99
77323;BME280;66384;51.052;9.850;2024-03-17T12:28:29;99186.42;;;12.77;46.20
77323;BME280;66384;51.052;9.850;2024-03-17T12:31:00;99181.92;;;12.83;45.76
77323;BME280;66384;51.052;9.850;2024-03-17T12:33:34;99181.03;;;12.89;45.86
77323;BME280;66384;51.052;9.850;2024-03-17T12:36:14;99175.28;;;12.94;45.34
77323;BME280;66384;51.052;9.850;2024-03-17T12:38:45;99175.55;;;12.97;45.31
77323;BME280;66384;51.052;9.850;2024-03-17T12:41:18;99172.75;;;13.03;45.40
77323;BME280;66384;51.052;9.850;2024-03-17T12:43:51;99163.59;;;13.10;45.25
77323;BME280;66384;51.052;9.850;2024-03-17T12:46:24;99161.18;;;13.18;45.21
77323;BME280;66384;51.052;9.850;2024-03-17T12:49:01;99164.04;;;13.22;44.53
77323;BME280;66384;51.052;9.850;2024-03-17T12:51:34;99162.30;;;13.22;44.19
77323;BME280;66384;51.052;9.850;2024-03-17T12:54:16;99158.66;;;13.21;44.35
77323;BME280;66384;51.052;9.850;2024-03-17T12:56:50;99159.52;;;13.21;44.12
77323;BME280;66384;51.052;9.850;2024-03-17T12:59:42;99152.42;;;13.20;43.86
77323;BME280;66384;51.052;9.850;2024-03-17T13:02:27;99156.80;;;13.23;44.32
77323;BME280;66384;51.052;9.850;2024-03-17T13:05:12;99156.20;;;13.26;44.43
77323;BME280;66384;51.052;9.850;2024-03-17T13:07:45;99157.10;;;13.27;44.55
77323;BME280;66384;51.052;9.850;2024-03-17T13:10:17;99155.23;;;13.28;44.62
77323;BME280;66384;51.052;9.850;2024-03-17T13:13:00;99151.92;;;13.28;44.57
77323;BME280;66384;51.052;9.850;2024-03-17T13:15:33;99151.04;;;13.27;44.40
77323;BME280;66384;51.052;9.850;2024-03-17T13:18:06;99145.86;;;13.27;44.30
77323;BME280;66384;51.052;9.850;2024-03-17T13:20:37;99143.05;;;13.26;44.64
77323;BME280;66384;51.052;9.850;2024-03-17T13:23:08;99142.35;;;13.25;44.82
77323;BME280;66384;51.052;9.850;2024-03-17T13:25:39;99140.83;;;13.26;43.90
77323;BME280;66384;51.052;9.850;2024-03-17T13:28:13;99134.30;;;13.27;44.37
77323;BME280;66384;51.052;9.850;2024-03-17T13:30:44;99127.02;;;13.34;44.69
77323;BME280;66384;51.052;9.850;2024-03-17T13:33:16;99127.37;;;13.42;44.15
77323;BME280;66384;51.052;9.850;2024-03-17T13:35:48;99126.83;;;13.49;43.82